sensor_id;sensor_type;location;lat;lon;timestamp;P1;durP1;ratioP1;P2;durP2;ratioP2
49834;SDS011;35729;52.090;13.162;2023-07-13T00:01:12;3.80;;;2.10;;
49834;SDS011;35729;52.090;13.162;2023-07-13T00:03:40;3.42;;;2.38;;
49834;SDS011;35729;52.090;13.162;2023-07-13T00:06:09;5.90;;;2.40;;
49834;SDS011;35729;52.090;13.162;2023-07-13T00:08:38;3.55;;;2.10;;
49834;SDS011;35729;52.090;13.162;2023-07-13T00:11:09;3.53;;;2.00;;
49834;SDS011;35729;52.090;13.162;2023-07-13T00:13:37;2.30;;;1.98;;
49834;SDS011;35729;52.090;13.162;2023-07-13T00:16:06;2.92;;;2.25;;
49834;SDS011;35729;52.090;13.162;2023-07-13T00:18:35;3.90;;;2.20;;
49834;SDS011;35729;52.090;13.162;2023-07-13T00:21:04;4.18;;;2.25;;
49834;SDS011;35729;52.090;13.162;2023-07-13T00:23:32;5.18;;;2.10;;
49834;SDS011;35729;52.090;13.162;2023-07-13T00:26:02;4.35;;;2.00;;
49834;SDS011;35729;52.090;13.162;2023-07-13T00:28:34;3.90;;;1.88;;
49834;SDS011;35729;52.090;13.162;2023-07-13T00:31:03;5.20;;;2.13;;
49834;SDS011;35729;52.090;13.162;2023-07-13T00:33:31;3.80;;;2.00;;
49834;SDS011;35729;52.090;13.162;2023-07-13T00:36:00;4.15;;;1.83;;
49834;SDS011;35729;52.090;13.162;2023-07-13T00:38:29;6.28;;;2.20;;
49834;SDS011;35729;52.090;13.162;2023-07-13T00:40:58;3.85;;;2.50;;
49834;SDS011;35729;52.090;13.162;2023-07-13T00:43:27;3.80;;;2.20;;
49834;SDS011;35729;52.090;13.162;2023-07-13T00:48:57;2.95;;;2.20;;
49834;SDS011;35729;52.090;13.162;2023-07-13T00:51:31;5.18;;;2.33;;
49834;SDS011;35729;52.090;13.162;2023-07-13T00:54:05;8.73;;;2.85;;
49834;SDS011;35729;52.090;13.162;2023-07-13T00:56:43;5.07;;;2.28;;
49834;SDS011;35729;52.090;13.162;2023-07-13T00:59:14;4.40;;;2.35;;
49834;SDS011;35729;52.090;13.162;2023-07-13T01:01:48;6.55;;;2.47;;
49834;SDS011;35729;52.090;13.162;2023-07-13T01:04:17;5.60;;;2.40;;
49834;SDS011;35729;52.090;13.162;2023-07-13T01:06:46;4.32;;;2.17;;
49834;SDS011;35729;52.090;13.162;2023-07-13T01:09:15;5.82;;;2.70;;
49834;SDS011;35729;52.090;13.162;2023-07-13T01:11:43;3.47;;;2.38;;
49834;SDS011;35729;52.090;13.162;2023-07-13T01:14:12;5.35;;;2.45;;
49834;SDS011;35729;52.090;13.162;2023-07-13T01:16:42;5.15;;;2.50;;
49834;SDS011;35729;52.090;13.162;2023-07-13T01:19:17;4.82;;;2.28;;
49834;SDS011;35729;52.090;13.162;2023-07-13T01:22:04;3.13;;;2.47;;
49834;SDS011;35729;52.090;13.162;2023-07-13T01:24:36;4.97;;;2.58;;
49834;SDS011;35729;52.090;13.162;2023-07-13T01:27:06;4.10;;;2.22;;
49834;SDS011;35729;52.090;13.162;2023-07-13T01:29:36;3.10;;;2.45;;
49834;SDS011;35729;52.090;13.162;2023-07-13T01:32:09;3.50;;;2.43;;
49834;SDS011;35729;52.090;13.162;2023-07-13T01:34:38;6.00;;;2.60;;
49834;SDS011;35729;52.090;13.162;2023-07-13T01:37:10;5.20;;;2.92;;
49834;SDS011;35729;52.090;13.162;2023-07-13T01:39:40;6.57;;;2.65;;
49834;SDS011;35729;52.090;13.162;2023-07-13T01:42:08;3.60;;;2.30;;
49834;SDS011;35729;52.090;13.162;2023-07-13T01:44:37;5.18;;;2.70;;
49834;SDS011;35729;52.090;13.162;2023-07-13T01:47:05;6.07;;;2.53;;
49834;SDS011;35729;52.090;13.162;2023-07-13T01:49:41;5.00;;;2.50;;
49834;SDS011;35729;52.090;13.162;2023-07-13T01:52:13;5.43;;;2.70;;
49834;SDS011;35729;52.090;13.162;2023-07-13T01:54:42;2.83;;;2.42;;
49834;SDS011;35729;52.090;13.162;2023-07-13T01:57:10;5.30;;;3.10;;
49834;SDS011;35729;52.090;13.162;2023-07-13T01:59:39;3.45;;;2.63;;
49834;SDS011;35729;52.090;13.162;2023-07-13T02:02:07;3.53;;;2.30;;
49834;SDS011;35729;52.090;13.162;2023-07-13T02:04:36;4.28;;;2.70;;
49834;SDS011;35729;52.090;13.162;2023-07-13T02:07:04;5.57;;;2.50;;
49834;SDS011;35729;52.090;13.162;2023-07-13T02:09:35;5.07;;;2.70;;
49834;SDS011;35729;52.090;13.162;2023-07-13T02:12:05;3.97;;;2.58;;
49834;SDS011;35729;52.090;13.162;2023-07-13T02:14:34;4.65;;;2.70;;
49834;SDS011;35729;52.090;13.162;2023-07-13T02:17:03;3.10;;;2.40;;
49834;SDS011;35729;52.090;13.162;2023-07-13T02:19:32;4.57;;;2.60;;
49834;SDS011;35729;52.090;13.162;2023-07-13T02:22:01;5.72;;;2.28;;
49834;SDS011;35729;52.090;13.162;2023-07-13T02:24:30;6.10;;;2.53;;
49834;SDS011;35729;52.090;13.162;2023-07-13T02:27:01;5.20;;;2.80;;
49834;SDS011;35729;52.090;13.162;2023-07-13T02:29:29;3.25;;;2.53;;
49834;SDS011;35729;52.090;13.162;2023-07-13T02:31:58;5.43;;;2.80;;
49834;SDS011;35729;52.090;13.162;2023-07-13T02:34:26;4.45;;;3.45;;
49834;SDS011;35729;52.090;13.162;2023-07-13T02:36:55;3.38;;;2.78;;
49834;SDS011;35729;52.090;13.162;2023-07-13T02:39:23;5.30;;;3.15;;
49834;SDS011;35729;52.090;13.162;2023-07-13T02:41:52;5.55;;;3.35;;
49834;SDS011;35729;52.090;13.162;2023-07-13T02:44:23;6.38;;;2.85;;
49834;SDS011;35729;52.090;13.162;2023-07-13T02:46:51;4.07;;;2.78;;
49834;SDS011;35729;52.090;13.162;2023-07-13T02:49:20;4.20;;;2.88;;
49834;SDS011;35729;52.090;13.162;2023-07-13T02:51:48;3.58;;;2.90;;
49834;SDS011;35729;52.090;13.162;2023-07-13T02:54:17;6.47;;;2.78;;
49834;SDS011;35729;52.090;13.162;2023-07-13T02:56:45;4.82;;;3.22;;
49834;SDS011;35729;52.090;13.162;2023-07-13T02:59:13;4.20;;;3.08;;
49834;SDS011;35729;52.090;13.162;2023-07-13T03:01:45;6.30;;;3.33;;
49834;SDS011;35729;52.090;13.162;2023-07-13T03:04:13;5.50;;;3.03;;
49834;SDS011;35729;52.090;13.162;2023-07-13T03:06:44;5.68;;;2.90;;
49834;SDS011;35729;52.090;13.162;2023-07-13T03:09:14;8.68;;;3.63;;
49834;SDS011;35729;52.090;13.162;2023-07-13T03:11:42;7.85;;;3.70;;
49834;SDS011;35729;52.090;13.162;2023-07-13T03:14:11;6.13;;;3.83;;
49834;SDS011;35729;52.090;13.162;2023-07-13T03:16:39;3.90;;;3.40;;
49834;SDS011;35729;52.090;13.162;2023-07-13T03:19:10;5.60;;;3.22;;
49834;SDS011;35729;52.090;13.162;2023-07-13T03:21:39;5.05;;;3.42;;
49834;SDS011;35729;52.090;13.162;2023-07-13T03:24:07;3.58;;;3.05;;
49834;SDS011;35729;52.090;13.162;2023-07-13T03:26:36;4.40;;;3.50;;
49834;SDS011;35729;52.090;13.162;2023-07-13T03:29:04;5.90;;;3.50;;
49834;SDS011;35729;52.090;13.162;2023-07-13T03:31:34;7.85;;;5.15;;
49834;SDS011;35729;52.090;13.162;2023-07-13T03:34:04;4.55;;;3.00;;
49834;SDS011;35729;52.090;13.162;2023-07-13T03:36:35;11.23;;;7.25;;
49834;SDS011;35729;52.090;13.162;2023-07-13T03:39:03;5.82;;;3.60;;
49834;SDS011;35729;52.090;13.162;2023-07-13T03:41:33;10.93;;;5.97;;
49834;SDS011;35729;52.090;13.162;2023-07-13T03:44:02;10.45;;;6.85;;
49834;SDS011;35729;52.090;13.162;2023-07-13T03:46:30;4.90;;;3.88;;
49834;SDS011;35729;52.090;13.162;2023-07-13T03:48:59;6.88;;;3.83;;
49834;SDS011;35729;52.090;13.162;2023-07-13T03:51:28;11.77;;;6.70;;
49834;SDS011;35729;52.090;13.162;2023-07-13T03:53:59;5.28;;;3.47;;
49834;SDS011;35729;52.090;13.162;2023-07-13T03:56:27;6.00;;;4.32;;
49834;SDS011;35729;52.090;13.162;2023-07-13T03:58:58;7.13;;;4.70;;
49834;SDS011;35729;52.090;13.162;2023-07-13T04:01:27;4.63;;;3.28;;
49834;SDS011;35729;52.090;13.162;2023-07-13T04:03:56;6.15;;;3.67;;
49834;SDS011;35729;52.090;13.162;2023-07-13T04:06:26;6.57;;;3.92;;
49834;SDS011;35729;52.090;13.162;2023-07-13T04:08:57;4.40;;;3.40;;
49834;SDS011;35729;52.090;13.162;2023-07-13T04:11:30;7.38;;;3.60;;
49834;SDS011;35729;52.090;13.162;2023-07-13T04:14:01;6.78;;;3.35;;
49834;SDS011;35729;52.090;13.162;2023-07-13T04:16:30;7.28;;;3.50;;
49834;SDS011;35729;52.090;13.162;2023-07-13T04:18:58;5.63;;;3.53;;
49834;SDS011;35729;52.090;13.162;2023-07-13T04:21:27;7.35;;;3.75;;
49834;SDS011;35729;52.090;13.162;2023-07-13T04:24:00;5.88;;;3.10;;
49834;SDS011;35729;52.090;13.162;2023-07-13T04:26:29;5.28;;;3.40;;
49834;SDS011;35729;52.090;13.162;2023-07-13T04:29:01;5.40;;;3.55;;
49834;SDS011;35729;52.090;13.162;2023-07-13T04:31:30;4.97;;;3.50;;
49834;SDS011;35729;52.090;13.162;2023-07-13T04:33:59;5.78;;;3.58;;
49834;SDS011;35729;52.090;13.162;2023-07-13T04:36:28;6.57;;;3.95;;
49834;SDS011;35729;52.090;13.162;2023-07-13T04:38:56;6.35;;;3.78;;
49834;SDS011;35729;52.090;13.162;2023-07-13T04:41:27;7.35;;;4.03;;
49834;SDS011;35729;52.090;13.162;2023-07-13T04:43:56;9.02;;;4.07;;
49834;SDS011;35729;52.090;13.162;2023-07-13T04:46:24;8.25;;;4.03;;
49834;SDS011;35729;52.090;13.162;2023-07-13T04:48:53;6.28;;;3.78;;
49834;SDS011;35729;52.090;13.162;2023-07-13T04:51:22;7.35;;;3.60;;
49834;SDS011;35729;52.090;13.162;2023-07-13T04:53:51;6.75;;;4.13;;
49834;SDS011;35729;52.090;13.162;2023-07-13T04:56:20;6.35;;;3.92;;
49834;SDS011;35729;52.090;13.162;2023-07-13T04:58:51;10.55;;;4.50;;
49834;SDS011;35729;52.090;13.162;2023-07-13T05:01:19;5.60;;;3.88;;
49834;SDS011;35729;52.090;13.162;2023-07-13T05:03:48;5.93;;;4.20;;
49834;SDS011;35729;52.090;13.162;2023-07-13T05:06:16;7.57;;;3.55;;
49834;SDS011;35729;52.090;13.162;2023-07-13T05:08:45;8.18;;;3.72;;
49834;SDS011;35729;52.090;13.162;2023-07-13T05:11:13;9.02;;;4.18;;
49834;SDS011;35729;52.090;13.162;2023-07-13T05:13:41;8.35;;;3.13;;
49834;SDS011;35729;52.090;13.162;2023-07-13T05:16:13;8.18;;;3.63;;
49834;SDS011;35729;52.090;13.162;2023-07-13T05:18:47;4.88;;;3.58;;
49834;SDS011;35729;52.090;13.162;2023-07-13T05:21:16;7.43;;;2.95;;
49834;SDS011;35729;52.090;13.162;2023-07-13T05:23:44;5.95;;;3.45;;
49834;SDS011;35729;52.090;13.162;2023-07-13T05:26:13;5.32;;;2.80;;
49834;SDS011;35729;52.090;13.162;2023-07-13T05:28:42;7.97;;;3.33;;
49834;SDS011;35729;52.090;13.162;2023-07-13T05:31:13;7.07;;;3.20;;
49834;SDS011;35729;52.090;13.162;2023-07-13T05:33:41;6.63;;;3.03;;
49834;SDS011;35729;52.090;13.162;2023-07-13T05:36:10;6.88;;;2.83;;
49834;SDS011;35729;52.090;13.162;2023-07-13T05:38:38;6.30;;;2.80;;
49834;SDS011;35729;52.090;13.162;2023-07-13T05:41:07;4.40;;;2.47;;
49834;SDS011;35729;52.090;13.162;2023-07-13T05:43:35;4.55;;;2.65;;
49834;SDS011;35729;52.090;13.162;2023-07-13T05:46:03;5.72;;;2.65;;
49834;SDS011;35729;52.090;13.162;2023-07-13T05:48:35;7.07;;;3.45;;
49834;SDS011;35729;52.090;13.162;2023-07-13T05:51:03;6.15;;;2.47;;
49834;SDS011;35729;52.090;13.162;2023-07-13T05:53:32;6.30;;;2.60;;
49834;SDS011;35729;52.090;13.162;2023-07-13T05:56:02;4.68;;;2.45;;
49834;SDS011;35729;52.090;13.162;2023-07-13T05:58:31;4.35;;;2.30;;
49834;SDS011;35729;52.090;13.162;2023-07-13T06:01:00;3.65;;;2.22;;
49834;SDS011;35729;52.090;13.162;2023-07-13T06:03:31;4.43;;;2.13;;
49834;SDS011;35729;52.090;13.162;2023-07-13T06:06:02;7.72;;;2.50;;
49834;SDS011;35729;52.090;13.162;2023-07-13T06:08:31;5.32;;;2.33;;
49834;SDS011;35729;52.090;13.162;2023-07-13T06:11:03;4.95;;;2.08;;
49834;SDS011;35729;52.090;13.162;2023-07-13T06:13:33;6.65;;;2.22;;
49834;SDS011;35729;52.090;13.162;2023-07-13T06:16:01;4.45;;;2.22;;
49834;SDS011;35729;52.090;13.162;2023-07-13T06:18:37;3.88;;;2.75;;
49834;SDS011;35729;52.090;13.162;2023-07-13T06:21:10;3.92;;;2.58;;
49834;SDS011;35729;52.090;13.162;2023-07-13T06:23:41;2.70;;;2.42;;
49834;SDS011;35729;52.090;13.162;2023-07-13T06:26:10;5.13;;;2.90;;
49834;SDS011;35729;52.090;13.162;2023-07-13T06:28:39;4.72;;;2.20;;
49834;SDS011;35729;52.090;13.162;2023-07-13T06:31:08;4.80;;;2.05;;
49834;SDS011;35729;52.090;13.162;2023-07-13T06:33:37;6.85;;;2.13;;
49834;SDS011;35729;52.090;13.162;2023-07-13T06:36:07;3.88;;;2.03;;
49834;SDS011;35729;52.090;13.162;2023-07-13T06:38:38;4.60;;;2.30;;
49834;SDS011;35729;52.090;13.162;2023-07-13T06:41:07;5.00;;;2.33;;
49834;SDS011;35729;52.090;13.162;2023-07-13T06:43:36;4.90;;;2.22;;
49834;SDS011;35729;52.090;13.162;2023-07-13T06:46:04;4.35;;;2.28;;
49834;SDS011;35729;52.090;13.162;2023-07-13T06:48:33;4.53;;;2.10;;
49834;SDS011;35729;52.090;13.162;2023-07-13T06:51:02;3.55;;;2.42;;
49834;SDS011;35729;52.090;13.162;2023-07-13T06:53:33;5.13;;;2.15;;
49834;SDS011;35729;52.090;13.162;2023-07-13T06:56:02;3.85;;;1.85;;
49834;SDS011;35729;52.090;13.162;2023-07-13T06:58:31;4.20;;;1.92;;
49834;SDS011;35729;52.090;13.162;2023-07-13T07:01:01;6.20;;;2.13;;
49834;SDS011;35729;52.090;13.162;2023-07-13T07:03:30;4.68;;;2.65;;
49834;SDS011;35729;52.090;13.162;2023-07-13T07:06:03;3.63;;;1.98;;
49834;SDS011;35729;52.090;13.162;2023-07-13T07:08:42;5.05;;;2.13;;
49834;SDS011;35729;52.090;13.162;2023-07-13T07:11:11;6.63;;;2.13;;
49834;SDS011;35729;52.090;13.162;2023-07-13T07:13:41;4.20;;;2.50;;
49834;SDS011;35729;52.090;13.162;2023-07-13T07:16:10;3.58;;;2.17;;
49834;SDS011;35729;52.090;13.162;2023-07-13T07:18:38;6.38;;;2.65;;
49834;SDS011;35729;52.090;13.162;2023-07-13T07:21:07;9.73;;;2.45;;
49834;SDS011;35729;52.090;13.162;2023-07-13T07:23:35;5.22;;;2.10;;
49834;SDS011;35729;52.090;13.162;2023-07-13T07:26:07;4.40;;;1.83;;
49834;SDS011;35729;52.090;13.162;2023-07-13T07:28:36;5.47;;;2.17;;
49834;SDS011;35729;52.090;13.162;2023-07-13T07:31:05;4.00;;;1.80;;
49834;SDS011;35729;52.090;13.162;2023-07-13T07:33:41;4.60;;;2.15;;
49834;SDS011;35729;52.090;13.162;2023-07-13T07:36:10;3.58;;;2.03;;
49834;SDS011;35729;52.090;13.162;2023-07-13T07:38:39;6.07;;;2.03;;
49834;SDS011;35729;52.090;13.162;2023-07-13T07:41:10;5.90;;;2.20;;
49834;SDS011;35729;52.090;13.162;2023-07-13T07:43:39;5.20;;;1.75;;
49834;SDS011;35729;52.090;13.162;2023-07-13T07:46:07;2.58;;;1.48;;
49834;SDS011;35729;52.090;13.162;2023-07-13T07:48:36;2.72;;;1.75;;
49834;SDS011;35729;52.090;13.162;2023-07-13T07:51:04;3.45;;;1.67;;
49834;SDS011;35729;52.090;13.162;2023-07-13T07:53:33;4.22;;;1.75;;
49834;SDS011;35729;52.090;13.162;2023-07-13T07:56:01;4.15;;;2.10;;
49834;SDS011;35729;52.090;13.162;2023-07-13T08:03:32;3.00;;;1.67;;
49834;SDS011;35729;52.090;13.162;2023-07-13T08:06:00;5.43;;;2.05;;
49834;SDS011;35729;52.090;13.162;2023-07-13T08:08:29;4.25;;;2.45;;
49834;SDS011;35729;52.090;13.162;2023-07-13T08:10:58;4.22;;;2.00;;
49834;SDS011;35729;52.090;13.162;2023-07-13T08:13:30;4.30;;;1.33;;
49834;SDS011;35729;52.090;13.162;2023-07-13T08:16:03;3.22;;;1.35;;
49834;SDS011;35729;52.090;13.162;2023-07-13T08:21:02;3.67;;;1.40;;
49834;SDS011;35729;52.090;13.162;2023-07-13T08:23:31;4.15;;;1.52;;
49834;SDS011;35729;52.090;13.162;2023-07-13T08:26:00;6.63;;;1.30;;
49834;SDS011;35729;52.090;13.162;2023-07-13T08:28:30;3.92;;;1.60;;
49834;SDS011;35729;52.090;13.162;2023-07-13T08:31:03;2.97;;;1.60;;
49834;SDS011;35729;52.090;13.162;2023-07-13T08:33:33;8.13;;;1.92;;
49834;SDS011;35729;52.090;13.162;2023-07-13T08:36:03;3.20;;;1.50;;
49834;SDS011;35729;52.090;13.162;2023-07-13T08:38:33;5.43;;;1.67;;
49834;SDS011;35729;52.090;13.162;2023-07-13T08:41:03;4.13;;;1.80;;
49834;SDS011;35729;52.090;13.162;2023-07-13T08:43:39;5.28;;;2.03;;
49834;SDS011;35729;52.090;13.162;2023-07-13T08:46:13;3.92;;;1.60;;
49834;SDS011;35729;52.090;13.162;2023-07-13T08:48:46;3.85;;;1.50;;
49834;SDS011;35729;52.090;13.162;2023-07-13T08:51:24;5.40;;;1.83;;
49834;SDS011;35729;52.090;13.162;2023-07-13T08:54:00;3.90;;;1.40;;
49834;SDS011;35729;52.090;13.162;2023-07-13T08:56:31;3.63;;;1.42;;
49834;SDS011;35729;52.090;13.162;2023-07-13T08:59:01;6.88;;;1.70;;
49834;SDS011;35729;52.090;13.162;2023-07-13T09:01:51;6.97;;;2.25;;
49834;SDS011;35729;52.090;13.162;2023-07-13T09:04:29;5.30;;;1.42;;
49834;SDS011;35729;52.090;13.162;2023-07-13T09:07:04;5.15;;;1.33;;
49834;SDS011;35729;52.090;13.162;2023-07-13T09:09:39;2.38;;;1.20;;
49834;SDS011;35729;52.090;13.162;2023-07-13T09:12:19;4.25;;;1.80;;
49834;SDS011;35729;52.090;13.162;2023-07-13T09:14:54;2.60;;;1.25;;
49834;SDS011;35729;52.090;13.162;2023-07-13T09:17:29;2.70;;;1.48;;
49834;SDS011;35729;52.090;13.162;2023-07-13T09:20:02;4.50;;;1.00;;
49834;SDS011;35729;52.090;13.162;2023-07-13T09:22:38;3.67;;;1.38;;
49834;SDS011;35729;52.090;13.162;2023-07-13T09:25:13;4.30;;;1.45;;
49834;SDS011;35729;52.090;13.162;2023-07-13T09:27:52;6.55;;;1.50;;
49834;SDS011;35729;52.090;13.162;2023-07-13T09:30:25;5.78;;;1.65;;
49834;SDS011;35729;52.090;13.162;2023-07-13T09:33:04;5.93;;;1.50;;
49834;SDS011;35729;52.090;13.162;2023-07-13T09:35:34;3.83;;;1.38;;
49834;SDS011;35729;52.090;13.162;2023-07-13T09:38:10;5.07;;;1.45;;
49834;SDS011;35729;52.090;13.162;2023-07-13T09:40:42;3.55;;;1.67;;
49834;SDS011;35729;52.090;13.162;2023-07-13T09:43:19;4.05;;;1.75;;
49834;SDS011;35729;52.090;13.162;2023-07-13T09:45:49;4.07;;;1.63;;
49834;SDS011;35729;52.090;13.162;2023-07-13T09:48:20;4.57;;;1.98;;
49834;SDS011;35729;52.090;13.162;2023-07-13T09:50:49;4.30;;;1.52;;
49834;SDS011;35729;52.090;13.162;2023-07-13T09:53:24;3.45;;;1.42;;
49834;SDS011;35729;52.090;13.162;2023-07-13T09:55:59;3.47;;;1.67;;
49834;SDS011;35729;52.090;13.162;2023-07-13T09:58:29;3.97;;;2.20;;
49834;SDS011;35729;52.090;13.162;2023-07-13T10:01:00;4.80;;;1.27;;
49834;SDS011;35729;52.090;13.162;2023-07-13T10:03:32;6.03;;;1.75;;
49834;SDS011;35729;52.090;13.162;2023-07-13T10:06:10;3.95;;;1.70;;
49834;SDS011;35729;52.090;13.162;2023-07-13T10:08:40;5.35;;;1.90;;
49834;SDS011;35729;52.090;13.162;2023-07-13T10:11:10;5.03;;;1.67;;
49834;SDS011;35729;52.090;13.162;2023-07-13T10:13:41;5.10;;;1.70;;
49834;SDS011;35729;52.090;13.162;2023-07-13T10:16:12;3.38;;;1.30;;
49834;SDS011;35729;52.090;13.162;2023-07-13T10:18:44;3.95;;;1.50;;
49834;SDS011;35729;52.090;13.162;2023-07-13T10:23:45;3.97;;;1.45;;
49834;SDS011;35729;52.090;13.162;2023-07-13T10:26:19;5.10;;;2.67;;
49834;SDS011;35729;52.090;13.162;2023-07-13T10:28:52;2.60;;;1.80;;
49834;SDS011;35729;52.090;13.162;2023-07-13T10:31:24;6.53;;;2.08;;
49834;SDS011;35729;52.090;13.162;2023-07-13T10:33:55;4.82;;;2.05;;
49834;SDS011;35729;52.090;13.162;2023-07-13T10:36:28;3.72;;;1.90;;
49834;SDS011;35729;52.090;13.162;2023-07-13T10:39:01;5.10;;;2.10;;
49834;SDS011;35729;52.090;13.162;2023-07-13T10:41:33;2.95;;;2.33;;
49834;SDS011;35729;52.090;13.162;2023-07-13T10:44:06;3.33;;;2.00;;
49834;SDS011;35729;52.090;13.162;2023-07-13T10:46:45;4.40;;;2.42;;
49834;SDS011;35729;52.090;13.162;2023-07-13T10:49:24;2.92;;;1.75;;
49834;SDS011;35729;52.090;13.162;2023-07-13T10:51:54;4.80;;;2.10;;
49834;SDS011;35729;52.090;13.162;2023-07-13T10:54:26;4.38;;;2.55;;
49834;SDS011;35729;52.090;13.162;2023-07-13T11:02:42;6.45;;;2.00;;
49834;SDS011;35729;52.090;13.162;2023-07-13T11:05:22;4.68;;;2.03;;
49834;SDS011;35729;52.090;13.162;2023-07-13T11:08:02;6.22;;;2.22;;
49834;SDS011;35729;52.090;13.162;2023-07-13T11:10:48;5.63;;;2.45;;
49834;SDS011;35729;52.090;13.162;2023-07-13T11:16:35;3.92;;;2.10;;
49834;SDS011;35729;52.090;13.162;2023-07-13T11:22:21;4.18;;;2.00;;
49834;SDS011;35729;52.090;13.162;2023-07-13T11:25:01;2.30;;;1.80;;
49834;SDS011;35729;52.090;13.162;2023-07-13T11:27:50;5.88;;;1.90;;
49834;SDS011;35729;52.090;13.162;2023-07-13T11:30:24;4.68;;;1.92;;
49834;SDS011;35729;52.090;13.162;2023-07-13T11:35:46;5.25;;;1.83;;
49834;SDS011;35729;52.090;13.162;2023-07-13T11:38:22;3.17;;;1.25;;
49834;SDS011;35729;52.090;13.162;2023-07-13T11:40:58;3.60;;;1.77;;
49834;SDS011;35729;52.090;13.162;2023-07-13T11:43:31;5.90;;;1.17;;
49834;SDS011;35729;52.090;13.162;2023-07-13T11:46:11;4.65;;;1.40;;
49834;SDS011;35729;52.090;13.162;2023-07-13T11:48:41;2.03;;;1.25;;
49834;SDS011;35729;52.090;13.162;2023-07-13T11:51:15;4.45;;;1.67;;
49834;SDS011;35729;52.090;13.162;2023-07-13T11:53:53;3.03;;;1.30;;
49834;SDS011;35729;52.090;13.162;2023-07-13T11:56:23;4.55;;;1.70;;
49834;SDS011;35729;52.090;13.162;2023-07-13T11:58:53;3.33;;;1.27;;
49834;SDS011;35729;52.090;13.162;2023-07-13T12:01:25;3.13;;;1.10;;
49834;SDS011;35729;52.090;13.162;2023-07-13T12:03:56;2.63;;;0.90;;
49834;SDS011;35729;52.090;13.162;2023-07-13T12:06:27;3.38;;;0.90;;
49834;SDS011;35729;52.090;13.162;2023-07-13T12:09:00;4.10;;;1.05;;
49834;SDS011;35729;52.090;13.162;2023-07-13T12:11:38;2.97;;;1.15;;
49834;SDS011;35729;52.090;13.162;2023-07-13T12:14:12;1.67;;;1.10;;
49834;SDS011;35729;52.090;13.162;2023-07-13T12:16:42;3.90;;;1.00;;
49834;SDS011;35729;52.090;13.162;2023-07-13T12:19:14;2.92;;;1.40;;
49834;SDS011;35729;52.090;13.162;2023-07-13T12:21:47;4.85;;;1.30;;
49834;SDS011;35729;52.090;13.162;2023-07-13T12:24:19;2.45;;;1.35;;
49834;SDS011;35729;52.090;13.162;2023-07-13T12:26:50;2.92;;;1.10;;
49834;SDS011;35729;52.090;13.162;2023-07-13T12:29:19;1.88;;;1.10;;
49834;SDS011;35729;52.090;13.162;2023-07-13T12:31:49;4.43;;;1.13;;
49834;SDS011;35729;52.090;13.162;2023-07-13T12:34:19;3.92;;;1.10;;
49834;SDS011;35729;52.090;13.162;2023-07-13T12:36:48;2.97;;;1.13;;
49834;SDS011;35729;52.090;13.162;2023-07-13T12:39:22;2.90;;;1.25;;
49834;SDS011;35729;52.090;13.162;2023-07-13T12:41:52;2.28;;;1.27;;
49834;SDS011;35729;52.090;13.162;2023-07-13T12:44:23;3.08;;;1.30;;
49834;SDS011;35729;52.090;13.162;2023-07-13T12:47:03;2.85;;;1.17;;
49834;SDS011;35729;52.090;13.162;2023-07-13T12:49:39;2.80;;;1.20;;
49834;SDS011;35729;52.090;13.162;2023-07-13T12:54:51;3.67;;;1.15;;
49834;SDS011;35729;52.090;13.162;2023-07-13T12:57:22;3.10;;;1.00;;
49834;SDS011;35729;52.090;13.162;2023-07-13T12:59:51;2.17;;;0.90;;
49834;SDS011;35729;52.090;13.162;2023-07-13T13:02:23;2.95;;;0.82;;
49834;SDS011;35729;52.090;13.162;2023-07-13T13:04:56;4.88;;;1.25;;
49834;SDS011;35729;52.090;13.162;2023-07-13T13:07:25;2.72;;;1.15;;
49834;SDS011;35729;52.090;13.162;2023-07-13T13:09:57;4.03;;;1.13;;
49834;SDS011;35729;52.090;13.162;2023-07-13T13:12:25;2.92;;;0.98;;
49834;SDS011;35729;52.090;13.162;2023-07-13T13:14:54;3.60;;;1.17;;
49834;SDS011;35729;52.090;13.162;2023-07-13T13:17:51;1.15;;;0.75;;
49834;SDS011;35729;52.090;13.162;2023-07-13T13:20:20;4.93;;;1.02;;
49834;SDS011;35729;52.090;13.162;2023-07-13T13:22:50;2.50;;;0.70;;
49834;SDS011;35729;52.090;13.162;2023-07-13T13:25:22;2.42;;;1.50;;
49834;SDS011;35729;52.090;13.162;2023-07-13T13:27:51;2.20;;;0.98;;
49834;SDS011;35729;52.090;13.162;2023-07-13T13:30:19;4.78;;;1.00;;
49834;SDS011;35729;52.090;13.162;2023-07-13T13:32:48;2.92;;;1.00;;
49834;SDS011;35729;52.090;13.162;2023-07-13T13:35:17;4.28;;;1.20;;
49834;SDS011;35729;52.090;13.162;2023-07-13T13:37:47;4.15;;;1.17;;
49834;SDS011;35729;52.090;13.162;2023-07-13T13:40:17;4.70;;;1.10;;
49834;SDS011;35729;52.090;13.162;2023-07-13T13:42:50;2.72;;;1.00;;
49834;SDS011;35729;52.090;13.162;2023-07-13T13:45:20;5.90;;;1.33;;
49834;SDS011;35729;52.090;13.162;2023-07-13T13:47:49;2.35;;;1.20;;
49834;SDS011;35729;52.090;13.162;2023-07-13T13:50:19;2.20;;;0.98;;
49834;SDS011;35729;52.090;13.162;2023-07-13T13:52:49;3.40;;;0.93;;
49834;SDS011;35729;52.090;13.162;2023-07-13T13:55:18;3.47;;;0.90;;
49834;SDS011;35729;52.090;13.162;2023-07-13T13:57:51;4.32;;;0.88;;
49834;SDS011;35729;52.090;13.162;2023-07-13T14:00:20;3.92;;;1.00;;
49834;SDS011;35729;52.090;13.162;2023-07-13T14:02:49;3.78;;;1.00;;
49834;SDS011;35729;52.090;13.162;2023-07-13T14:05:21;3.63;;;1.05;;
49834;SDS011;35729;52.090;13.162;2023-07-13T14:07:51;3.33;;;1.00;;
49834;SDS011;35729;52.090;13.162;2023-07-13T14:10:20;5.38;;;1.33;;
49834;SDS011;35729;52.090;13.162;2023-07-13T14:12:53;2.28;;;1.00;;
49834;SDS011;35729;52.090;13.162;2023-07-13T14:15:24;3.33;;;1.30;;
49834;SDS011;35729;52.090;13.162;2023-07-13T14:18:01;3.28;;;0.90;;
49834;SDS011;35729;52.090;13.162;2023-07-13T14:20:29;5.15;;;1.35;;
49834;SDS011;35729;52.090;13.162;2023-07-13T14:22:58;2.85;;;0.90;;
49834;SDS011;35729;52.090;13.162;2023-07-13T14:25:26;2.33;;;1.10;;
49834;SDS011;35729;52.090;13.162;2023-07-13T14:27:58;2.40;;;0.88;;
49834;SDS011;35729;52.090;13.162;2023-07-13T14:30:33;5.13;;;1.17;;
49834;SDS011;35729;52.090;13.162;2023-07-13T14:33:01;2.35;;;0.85;;
49834;SDS011;35729;52.090;13.162;2023-07-13T14:35:36;3.85;;;1.00;;
49834;SDS011;35729;52.090;13.162;2023-07-13T14:38:05;2.05;;;0.85;;
49834;SDS011;35729;52.090;13.162;2023-07-13T14:40:39;1.40;;;0.80;;
49834;SDS011;35729;52.090;13.162;2023-07-13T14:43:12;2.88;;;1.00;;
49834;SDS011;35729;52.090;13.162;2023-07-13T14:45:43;1.83;;;0.98;;
49834;SDS011;35729;52.090;13.162;2023-07-13T14:48:15;2.37;;;0.70;;
49834;SDS011;35729;52.090;13.162;2023-07-13T14:50:46;2.27;;;0.83;;
49834;SDS011;35729;52.090;13.162;2023-07-13T14:53:18;1.88;;;0.50;;
49834;SDS011;35729;52.090;13.162;2023-07-13T14:55:47;2.03;;;0.70;;
49834;SDS011;35729;52.090;13.162;2023-07-13T14:58:18;2.67;;;0.68;;
49834;SDS011;35729;52.090;13.162;2023-07-13T15:00:46;2.92;;;0.82;;
49834;SDS011;35729;52.090;13.162;2023-07-13T15:03:16;1.98;;;0.77;;
49834;SDS011;35729;52.090;13.162;2023-07-13T15:05:47;3.15;;;0.63;;
49834;SDS011;35729;52.090;13.162;2023-07-13T15:08:16;2.97;;;0.98;;
49834;SDS011;35729;52.090;13.162;2023-07-13T15:10:45;2.38;;;0.80;;
49834;SDS011;35729;52.090;13.162;2023-07-13T15:13:14;2.15;;;0.90;;
49834;SDS011;35729;52.090;13.162;2023-07-13T15:15:53;3.63;;;1.15;;
49834;SDS011;35729;52.090;13.162;2023-07-13T15:18:29;1.63;;;0.80;;
49834;SDS011;35729;52.090;13.162;2023-07-13T15:21:00;3.78;;;0.77;;
49834;SDS011;35729;52.090;13.162;2023-07-13T15:23:29;1.75;;;0.93;;
49834;SDS011;35729;52.090;13.162;2023-07-13T15:25:57;1.90;;;0.60;;